Flight Track Log - Related Links

Times and Time Zones

All times are in EDT time to prevent confusion due to time zone crossing. See the BKA724 flight status page for this flight to view local times or setup timezone preferences in your user account.

Time Position Orientation Groundspeed Altitude Reporting Facility
EDT Latitude Longitude Course Direction KTS MPH feet Rate Location/Type
01:02PM 42.1378 -76.1292 206° Southwest 219 252 11,100  Level New York Center
01:03PM 42.0694 -76.1656 202° Southwest 238 274 14,100 3,250 Climbing New York Center
01:04PM 41.9969 -76.2014 200° South 266 306 17,600 3,900 Climbing New York Center
01:05PM 41.9353 -76.2297 199° South 269 310 21,900 2,650 Climbing New York Center
01:06PM 41.8695 -76.2589 197° South  Level FlightAware Approximate
01:06PM 41.8961 -76.3103 237° Southwest 241 277 22,900  Level New York Center
01:07PM 41.8536 -76.4181 242° Southwest 274 315 23,600 1,000 Climbing New York Center
01:08PM 41.8025 -76.5278 238° Southwest 320 368 24,900 1,500 Climbing New York Center
01:09PM 41.7628 -76.6161 239° Southwest 342 394 26,600 1,200 Climbing New York Center
01:10PM 41.7058 -76.7556 241° Southwest 347 399 27,300 897 Climbing New York Center
01:11PM 41.6631 -76.8061 221° Southwest 351 404 28,200 1,278 Climbing Cleveland Center
01:12PM 41.5786 -76.8633 207° Southwest 332 382 29,600 878 Climbing Cleveland Center
01:13PM 41.4947 -76.9139 204° Southwest 332 382 30,000 1,415 Climbing Cleveland Center
01:14PM 41.3967 -76.9764 206° Southwest 329 379 32,500 2,244 Climbing Cleveland Center
01:15PM 41.3219 -77.0222 205° Southwest 304 350 34,600 1,721 Climbing Cleveland Center
01:16PM 41.2481 -77.0683 205° Southwest 299 344 36,200 1,228 Climbing New York Center
01:17PM 41.1769 -77.1114 205° Southwest 287 330 37,200 850 Climbing New York Center
01:18PM 41.1036 -77.1594 206° Southwest 287 330 37,900 400 Climbing New York Center
01:19PM 41.0283 -77.2047 204° Southwest 292 336 38,000 50 Climbing New York Center
01:20PM 40.9506 -77.2525 205° Southwest 297 342 38,000  Level New York Center
01:21PM 40.8731 -77.3000 205° Southwest 303 349 38,000  Level New York Center
01:22PM 40.7975 -77.3475 205° Southwest 308 354 38,000  Level New York Center
01:23PM 40.7083 -77.4000 204° Southwest 307 353 38,000  Level Cleveland Center
01:24PM 40.6319 -77.4464 205° Southwest 305 351 38,000  Level Cleveland Center
01:26PM 40.5553 -77.4936 205° Southwest 305 351 38,000  Level Cleveland Center
01:27PM 40.4775 -77.5397 204° Southwest 305 351 38,000  Level Cleveland Center
01:28PM 40.3869 -77.5936 204° Southwest 303 349 38,000  Level Cleveland Center
01:29PM 40.3114 -77.6408 205° Southwest 302 348 38,000  Level Cleveland Center
01:30PM 40.2311 -77.6886 204° Southwest 301 346 38,000  Level Cleveland Center
01:31PM 40.1553 -77.7333 204° Southwest 301 346 38,000  Level Cleveland Center
01:32PM 40.0797 -77.7775 204° Southwest 299 344 38,000  Level Cleveland Center
01:33PM 40.0039 -77.8231 205° Southwest 299 344 38,000  Level Cleveland Center
01:34PM 39.9272 -77.8692 205° Southwest 299 344 38,000  Level Cleveland Center
01:35PM 39.8514 -77.9136 204° Southwest 300 345 38,000  Level Cleveland Center
01:36PM 39.7742 -77.9594 205° Southwest 301 346 38,000  Level Cleveland Center
01:37PM 39.6836 -78.0117 204° Southwest 301 346 38,000  Level Cleveland Center
01:38PM 39.6078 -78.0569 205° Southwest 300 345 38,000  Level Cleveland Center
01:39PM 39.5314 -78.1011 204° Southwest 301 346 38,000  Level Cleveland Center
01:40PM 39.4558 -78.1456 204° Southwest 301 346 38,000  Level Cleveland Center
01:41PM 39.3797 -78.1900 204° Southwest 301 346 38,000  Level Cleveland Center
01:42PM 39.3039 -78.2336 204° Southwest 301 346 38,000  Level Cleveland Center
01:43PM 39.2231 -78.2789 203° Southwest 306 352 38,000  Level Washington Center
01:44PM 39.1492 -78.3242 205° Southwest 306 352 38,000  Level Washington Center
01:45PM 39.0731 -78.3669 204° Southwest 306 352 38,000  Level Washington Center
01:46PM 38.9972 -78.4094 204° Southwest 306 352 38,000  Level Washington Center
01:47PM 38.9211 -78.4544 205° Southwest 306 352 38,000  Level Washington Center
01:48PM 38.8431 -78.4942 202° Southwest 301 346 38,000  Level Washington Center
01:49PM 38.7689 -78.5364 204° Southwest 301 346 38,000  Level Washington Center
01:50PM 38.6908 -78.5786 203° Southwest 301 346 38,000  Level Washington Center
01:51PM 38.6147 -78.6233 205° Southwest 301 346 38,000  Level Washington Center
01:52PM 38.5364 -78.6653 203° Southwest 301 346 38,000  Level Washington Center
01:53PM 38.4603 -78.7044 202° Southwest 301 346 38,000  Level Washington Center
01:54PM 38.3819 -78.7489 204° Southwest 301 346 38,000  Level Washington Center
01:55PM 38.3058 -78.7908 203° Southwest 301 346 38,000  Level Washington Center
01:56PM 38.2233 -78.8375 204° Southwest 301 346 38,000  Level Washington Center
01:57PM 38.1469 -78.8789 203° Southwest 301 346 38,000  Level Washington Center
01:58PM 38.0708 -78.9206 203° Southwest 301 346 38,000  Level Washington Center
02:00PM 37.9247 -78.9983 203° Southwest 301 346 38,000  Level Washington Center
02:01PM 37.8483 -79.0394 203° Southwest 301 346 38,000  Level Washington Center
02:02PM 37.7700 -79.0806 203° Southwest 301 346 38,000  Level Washington Center
02:03PM 37.6833 -79.1239 202° Southwest 301 346 38,000  Level Washington Center
02:04PM 37.6047 -79.1672 204° Southwest 301 346 38,000 -541 Level Washington Center
02:05PM 37.5306 -79.2058 202° Southwest 306 352 36,900 -1,059 Descending Washington Center
02:06PM 37.4397 -79.2511 202° Southwest 314 361 35,900 -1,109 Descending Washington Center
02:07PM 37.3589 -79.2944 203° Southwest 320 368 34,700 -1,140 Descending Washington Center
02:08PM 37.2806 -79.3350 202° Southwest 320 368 33,600 -1,033 Descending Washington Center
02:09PM 37.2106 -79.3733 204° Southwest 314 361 32,600 -1,008 Descending Washington Center
02:10PM 37.1364 -79.4111 202° Southwest 304 350 31,600 -1,068 Descending Washington Center
02:11PM 37.0639 -79.4519 204° Southwest 299 344 30,500 -744 Descending Washington Center
02:12PM 36.9878 -79.4897 202° Southwest 299 344 30,100 -248 Descending Washington Center
02:13PM 36.9156 -79.5275 203° Southwest 299 344 30,000 -50 Descending Washington Center
02:14PM 36.8392 -79.5678 203° Southwest 294 338 30,000  Level Washington Center
02:15PM 36.7628 -79.6056 202° Southwest 289 333 30,000  Level Washington Center
02:16PM 36.6906 -79.6456 204° Southwest 289 333 30,000  Level Washington Center
02:18PM 36.5494 -79.7128 201° Southwest 317 365 30,000  Level Atlanta Center
02:19PM 36.4675 -79.7558 203° Southwest 317 365 30,000  Level Atlanta Center
02:20PM 36.3856 -79.7989 203° Southwest 323 372 30,000  Level Atlanta Center
02:21PM 36.3117 -79.8364 202° Southwest 323 372 30,000  Level Atlanta Center
02:22PM 36.2297 -79.8792 203° Southwest 323 372 30,000  Level Atlanta Center
02:23PM 36.1478 -79.9194 202° Southwest 323 372 30,000  Level Atlanta Center
02:24PM 36.0656 -79.9622 203° Southwest 323 372 30,000  Level Atlanta Center
02:25PM 35.9775 -80.0103 204° Southwest 328 377 30,000  Level Atlanta Center
02:26PM 35.8936 -80.0581 205° Southwest 328 377 30,000  Level Atlanta Center
02:27PM 35.8136 -80.1003 203° Southwest 328 377 30,000  Level Atlanta Center
02:28PM 35.7297 -80.1478 205° Southwest 328 377 30,000 -50 Level Atlanta Center
02:29PM 35.6558 -80.1897 205° Southwest 328 377 29,900 -900 Descending Atlanta Center
02:30PM 35.5758 -80.2342 204° Southwest 334 384 28,200 -1,700 Descending Atlanta Center
02:31PM 35.4917 -80.2817 205° Southwest 329 379 26,500 -1,550 Descending Atlanta Center
02:32PM 35.4119 -80.3286 206° Southwest 329 379 25,100 -1,350 Descending Atlanta Center
02:33PM 35.3297 -80.3703 202° Southwest 329 379 23,800 -1,350 Descending Atlanta Center
02:34PM 35.2517 -80.4144 205° Southwest 322 371 22,400 -900 Descending Atlanta Center
02:35PM 35.1717 -80.4589 204° Southwest 317 365 22,000 -1,309 Descending Atlanta Center
02:39PM 34.8611 -80.6256 204° Southwest 307 353 15,900 -1,409 Descending Jacksonville Center
02:40PM 34.7786 -80.6733 205° Southwest 302 348 15,000 -450 Descending Jacksonville Center
02:41PM 34.7125 -80.7081 203° Southwest 290 334 15,000  Level Jacksonville Center
02:42PM 34.6422 -80.7450 203° Southwest 290 334 15,000 -150 Level Jacksonville Center
02:43PM 34.5636 -80.7897 205° Southwest 301 346 14,700 -1,150 Descending Jacksonville Center
02:44PM 34.4872 -80.8294 203° Southwest 301 346 12,700 -1,750 Descending Jacksonville Center
02:45PM 34.4128 -80.8767 208° Southwest 301 346 11,200 -1,388 Descending Jacksonville Center
02:46PM 34.3492 -80.9308 215° Southwest 296 341 9,900 -1,750 Descending Jacksonville Center
02:47PM 34.2936 -80.9850 219° Southwest 284 327 7,700 -2,471 Descending Jacksonville Center
02:48PM 34.2289 -80.9964 188° South 241 277 5,000 -2,300 Descending Jacksonville Center
02:49PM 34.1625 -81.0028 185° South 228 262 3,100 -1,900 Descending Jacksonville Center
02:55PM 34.0178 -81.0700 212° Southwest  Level FlightAware Approximate
03:02PM 33.9333 -81.1167 203° Southwest  Level FlightAware Approximate
03:03PM 33.9388 -81.1195 203° Southwest  Level Estimated
03:04PM 33.9333 -81.1167 203° Southwest  Level FlightAware Approximate

Login

Don't have an account? Register now (free) for customized features, flight alerts, and more!